sensor_id;sensor_type;location;lat;lon;timestamp;pressure;altitude;pressure_sealevel;temperature;humidity
75646;BME280;64237;52.438;13.240;2023-04-25T00:00:42;100139.31;;;8.77;71.08
75646;BME280;64237;52.438;13.240;2023-04-25T00:03:20;100144.06;;;8.65;71.03
75646;BME280;64237;52.438;13.240;2023-04-25T00:05:46;100136.97;;;8.69;71.69
75646;BME280;64237;52.438;13.240;2023-04-25T00:08:11;100144.63;;;8.67;70.94
75646;BME280;64237;52.438;13.240;2023-04-25T00:10:40;100145.22;;;8.69;72.67
75646;BME280;64237;52.438;13.240;2023-04-25T00:13:08;100141.31;;;8.65;71.33
75646;BME280;64237;52.438;13.240;2023-04-25T00:15:34;100136.78;;;8.59;71.39
75646;BME280;64237;52.438;13.240;2023-04-25T00:18:04;100132.44;;;8.63;72.88
75646;BME280;64237;52.438;13.240;2023-04-25T00:20:30;100136.47;;;8.72;70.16
75646;BME280;64237;52.438;13.240;2023-04-25T00:23:11;100148.38;;;8.89;69.55
75646;BME280;64237;52.438;13.240;2023-04-25T00:25:47;100136.19;;;8.85;70.21
75646;BME280;64237;52.438;13.240;2023-04-25T00:28:21;100137.94;;;8.91;69.11
75646;BME280;64237;52.438;13.240;2023-04-25T00:30:53;100143.56;;;8.97;69.58
75646;BME280;64237;52.438;13.240;2023-04-25T00:33:21;100142.56;;;9.03;70.45
75646;BME280;64237;52.438;13.240;2023-04-25T00:35:46;100135.63;;;9.00;71.13
75646;BME280;64237;52.438;13.240;2023-04-25T00:38:18;100135.97;;;9.04;69.77
75646;BME280;64237;52.438;13.240;2023-04-25T00:40:46;100135.72;;;9.05;69.34
75646;BME280;64237;52.438;13.240;2023-04-25T00:43:18;100137.06;;;9.03;69.23
75646;BME280;64237;52.438;13.240;2023-04-25T00:45:43;100131.53;;;9.03;69.35
75646;BME280;64237;52.438;13.240;2023-04-25T00:48:17;100137.41;;;9.06;70.09
75646;BME280;64237;52.438;13.240;2023-04-25T00:50:51;100135.78;;;9.10;69.78
75646;BME280;64237;52.438;13.240;2023-04-25T00:53:18;100131.53;;;9.03;69.67
75646;BME280;64237;52.438;13.240;2023-04-25T00:55:46;100134.94;;;8.93;69.95
75646;BME280;64237;52.438;13.240;2023-04-25T00:58:15;100131.94;;;8.94;71.75
75646;BME280;64237;52.438;13.240;2023-04-25T01:00:40;100127.50;;;8.93;70.59
75646;BME280;64237;52.438;13.240;2023-04-25T01:03:06;100130.97;;;8.89;70.31
75646;BME280;64237;52.438;13.240;2023-04-25T01:05:34;100127.13;;;8.90;70.45
75646;BME280;64237;52.438;13.240;2023-04-25T01:08:03;100124.72;;;8.93;70.53
75646;BME280;64237;52.438;13.240;2023-04-25T01:10:28;100116.09;;;8.90;70.38
75646;BME280;64237;52.438;13.240;2023-04-25T01:12:54;100127.00;;;8.97;70.09
75646;BME280;64237;52.438;13.240;2023-04-25T01:15:22;100125.81;;;8.92;70.05
75646;BME280;64237;52.438;13.240;2023-04-25T01:17:47;100107.59;;;8.91;71.18
75646;BME280;64237;52.438;13.240;2023-04-25T01:20:15;100115.63;;;8.93;70.42
75646;BME280;64237;52.438;13.240;2023-04-25T01:22:44;100114.78;;;8.92;70.35
75646;BME280;64237;52.438;13.240;2023-04-25T01:25:15;100114.19;;;8.90;70.52
75646;BME280;64237;52.438;13.240;2023-04-25T01:27:45;100110.28;;;8.86;71.42
75646;BME280;64237;52.438;13.240;2023-04-25T01:30:11;100108.78;;;8.96;70.19
75646;BME280;64237;52.438;13.240;2023-04-25T01:32:42;100107.19;;;9.00;71.41
75646;BME280;64237;52.438;13.240;2023-04-25T01:35:17;100112.13;;;8.98;69.84
75646;BME280;64237;52.438;13.240;2023-04-25T01:37:49;100111.97;;;8.87;69.94
75646;BME280;64237;52.438;13.240;2023-04-25T01:40:21;100109.25;;;8.92;69.03
75646;BME280;64237;52.438;13.240;2023-04-25T01:42:54;100120.78;;;8.89;69.75
75646;BME280;64237;52.438;13.240;2023-04-25T01:45:20;100107.59;;;8.91;70.04
75646;BME280;64237;52.438;13.240;2023-04-25T01:47:45;100109.94;;;9.00;69.89
75646;BME280;64237;52.438;13.240;2023-04-25T01:50:14;100116.94;;;8.90;69.71
75646;BME280;64237;52.438;13.240;2023-04-25T01:52:49;100119.81;;;8.96;70.66
75646;BME280;64237;52.438;13.240;2023-04-25T01:55:18;100112.63;;;8.94;69.77
75646;BME280;64237;52.438;13.240;2023-04-25T01:57:46;100115.28;;;8.89;69.46
75646;BME280;64237;52.438;13.240;2023-04-25T02:00:12;100117.28;;;8.94;69.96
75646;BME280;64237;52.438;13.240;2023-04-25T02:02:37;100113.09;;;8.91;68.59
75646;BME280;64237;52.438;13.240;2023-04-25T02:05:03;100117.47;;;8.87;69.28
75646;BME280;64237;52.438;13.240;2023-04-25T02:07:31;100118.13;;;8.94;71.02
75646;BME280;64237;52.438;13.240;2023-04-25T02:10:00;100117.03;;;8.96;69.66
75646;BME280;64237;52.438;13.240;2023-04-25T02:12:25;100105.91;;;8.90;69.41
75646;BME280;64237;52.438;13.240;2023-04-25T02:14:54;100115.38;;;8.94;69.35
75646;BME280;64237;52.438;13.240;2023-04-25T02:17:22;100116.28;;;8.83;69.47
75646;BME280;64237;52.438;13.240;2023-04-25T02:19:48;100115.09;;;8.79;71.04
75646;BME280;64237;52.438;13.240;2023-04-25T02:22:22;100110.28;;;8.86;70.57
75646;BME280;64237;52.438;13.240;2023-04-25T02:24:47;100118.81;;;8.85;71.44
75646;BME280;64237;52.438;13.240;2023-04-25T02:27:31;100117.63;;;8.81;69.70
75646;BME280;64237;52.438;13.240;2023-04-25T02:30:00;100104.56;;;8.76;69.56
75646;BME280;64237;52.438;13.240;2023-04-25T02:32:28;100107.75;;;8.85;70.52
75646;BME280;64237;52.438;13.240;2023-04-25T02:34:53;100104.66;;;8.81;71.02
75646;BME280;64237;52.438;13.240;2023-04-25T02:37:22;100101.81;;;8.76;70.16
75646;BME280;64237;52.438;13.240;2023-04-25T02:39:50;100101.91;;;8.81;70.55
75646;BME280;64237;52.438;13.240;2023-04-25T02:42:18;100109.94;;;8.83;70.59
75646;BME280;64237;52.438;13.240;2023-04-25T02:44:50;100102.88;;;8.75;70.68
75646;BME280;64237;52.438;13.240;2023-04-25T02:47:22;100110.41;;;8.80;70.65
75646;BME280;64237;52.438;13.240;2023-04-25T02:49:50;100111.88;;;8.71;71.17
75646;BME280;64237;52.438;13.240;2023-04-25T02:52:15;100108.22;;;8.65;71.13
75646;BME280;64237;52.438;13.240;2023-04-25T02:54:41;100103.03;;;8.69;71.49
75646;BME280;64237;52.438;13.240;2023-04-25T02:57:07;100106.03;;;8.67;70.90
75646;BME280;64237;52.438;13.240;2023-04-25T02:59:35;100101.22;;;8.74;71.87
75646;BME280;64237;52.438;13.240;2023-04-25T03:02:00;100102.19;;;8.68;70.72
75646;BME280;64237;52.438;13.240;2023-04-25T03:04:26;100111.53;;;8.67;70.58
75646;BME280;64237;52.438;13.240;2023-04-25T03:06:52;100109.31;;;8.64;72.02
75646;BME280;64237;52.438;13.240;2023-04-25T03:09:23;100105.63;;;8.75;71.58
75646;BME280;64237;52.438;13.240;2023-04-25T03:11:51;100107.81;;;8.73;71.21
75646;BME280;64237;52.438;13.240;2023-04-25T03:14:23;100103.88;;;8.69;70.43
75646;BME280;64237;52.438;13.240;2023-04-25T03:16:48;100110.31;;;8.75;70.78
75646;BME280;64237;52.438;13.240;2023-04-25T03:19:13;100108.22;;;8.65;70.79
75646;BME280;64237;52.438;13.240;2023-04-25T03:21:41;100099.84;;;8.60;70.48
75646;BME280;64237;52.438;13.240;2023-04-25T03:24:10;100106.88;;;8.68;70.21
75646;BME280;64237;52.438;13.240;2023-04-25T03:26:42;100106.19;;;8.61;70.95
75646;BME280;64237;52.438;13.240;2023-04-25T03:29:10;100115.06;;;8.63;72.95
75646;BME280;64237;52.438;13.240;2023-04-25T03:31:36;100114.06;;;8.69;72.52
75646;BME280;64237;52.438;13.240;2023-04-25T03:34:01;100104.34;;;8.66;70.33
75646;BME280;64237;52.438;13.240;2023-04-25T03:36:27;100111.72;;;8.61;71.33
75646;BME280;64237;52.438;13.240;2023-04-25T03:38:55;100105.38;;;8.60;72.13
75646;BME280;64237;52.438;13.240;2023-04-25T03:41:27;100108.72;;;8.62;71.15
75646;BME280;64237;52.438;13.240;2023-04-25T03:43:55;100110.97;;;8.65;70.97
75646;BME280;64237;52.438;13.240;2023-04-25T03:46:24;100111.22;;;8.64;71.34
75646;BME280;64237;52.438;13.240;2023-04-25T03:48:49;100114.72;;;8.59;71.65
75646;BME280;64237;52.438;13.240;2023-04-25T03:51:20;100120.22;;;8.59;72.60
75646;BME280;64237;52.438;13.240;2023-04-25T03:53:46;100118.06;;;8.61;72.40
75646;BME280;64237;52.438;13.240;2023-04-25T03:56:11;100115.19;;;8.56;71.78
75646;BME280;64237;52.438;13.240;2023-04-25T03:58:36;100123.38;;;8.51;72.40
75646;BME280;64237;52.438;13.240;2023-04-25T04:01:05;100130.06;;;8.55;72.24
75646;BME280;64237;52.438;13.240;2023-04-25T04:03:35;100121.69;;;8.50;72.83
75646;BME280;64237;52.438;13.240;2023-04-25T04:06:05;100134.88;;;8.48;73.19
75646;BME280;64237;52.438;13.240;2023-04-25T04:08:43;100128.19;;;8.44;72.65
75646;BME280;64237;52.438;13.240;2023-04-25T04:11:08;100132.72;;;8.50;74.13
75646;BME280;64237;52.438;13.240;2023-04-25T04:13:40;100134.50;;;8.56;72.37
75646;BME280;64237;52.438;13.240;2023-04-25T04:16:05;100138.09;;;8.56;73.72
75646;BME280;64237;52.438;13.240;2023-04-25T04:18:49;100137.25;;;8.56;73.40
75646;BME280;64237;52.438;13.240;2023-04-25T04:21:23;100137.25;;;8.56;72.49
75646;BME280;64237;52.438;13.240;2023-04-25T04:23:49;100148.41;;;8.61;72.50
75646;BME280;64237;52.438;13.240;2023-04-25T04:26:15;100146.13;;;8.58;72.66
75646;BME280;64237;52.438;13.240;2023-04-25T04:28:50;100136.28;;;8.62;73.15
75646;BME280;64237;52.438;13.240;2023-04-25T04:31:16;100147.31;;;8.62;72.49
75646;BME280;64237;52.438;13.240;2023-04-25T04:33:46;100140.13;;;8.61;72.36
75646;BME280;64237;52.438;13.240;2023-04-25T04:36:11;100146.00;;;8.65;71.47
75646;BME280;64237;52.438;13.240;2023-04-25T04:38:46;100145.53;;;8.56;71.97
75646;BME280;64237;52.438;13.240;2023-04-25T04:41:17;100150.16;;;8.67;73.30
75646;BME280;64237;52.438;13.240;2023-04-25T04:43:44;100141.84;;;8.79;73.16
75646;BME280;64237;52.438;13.240;2023-04-25T04:46:22;100146.41;;;8.73;72.42
75646;BME280;64237;52.438;13.240;2023-04-25T04:48:50;100158.75;;;8.82;72.50
75646;BME280;64237;52.438;13.240;2023-04-25T04:51:19;100159.81;;;8.81;73.22
75646;BME280;64237;52.438;13.240;2023-04-25T04:53:48;100153.06;;;8.89;72.61
75646;BME280;64237;52.438;13.240;2023-04-25T04:56:14;100158.44;;;8.96;71.36
75646;BME280;64237;52.438;13.240;2023-04-25T04:58:58;100156.25;;;8.98;70.76
75646;BME280;64237;52.438;13.240;2023-04-25T05:01:26;100149.56;;;8.93;70.79
75646;BME280;64237;52.438;13.240;2023-04-25T05:03:52;100154.97;;;8.88;72.08
75646;BME280;64237;52.438;13.240;2023-04-25T05:06:23;100153.22;;;8.82;71.96
75646;BME280;64237;52.438;13.240;2023-04-25T05:08:56;100161.09;;;8.90;73.16
75646;BME280;64237;52.438;13.240;2023-04-25T05:11:22;100167.44;;;8.91;72.95
75646;BME280;64237;52.438;13.240;2023-04-25T05:13:54;100164.75;;;8.79;72.13
75646;BME280;64237;52.438;13.240;2023-04-25T05:16:20;100172.13;;;8.90;71.59
75646;BME280;64237;52.438;13.240;2023-04-25T05:18:46;100157.41;;;8.85;72.52
75646;BME280;64237;52.438;13.240;2023-04-25T05:21:11;100165.59;;;8.80;72.57
75646;BME280;64237;52.438;13.240;2023-04-25T05:23:43;100170.19;;;8.91;73.30
75646;BME280;64237;52.438;13.240;2023-04-25T05:26:17;100172.78;;;8.81;72.65
75646;BME280;64237;52.438;13.240;2023-04-25T05:28:43;100172.88;;;8.86;72.75
75646;BME280;64237;52.438;13.240;2023-04-25T05:31:11;100166.59;;;8.90;72.77
75646;BME280;64237;52.438;13.240;2023-04-25T05:33:37;100172.91;;;9.03;72.74
75646;BME280;64237;52.438;13.240;2023-04-25T05:36:02;100166.81;;;9.01;73.09
75646;BME280;64237;52.438;13.240;2023-04-25T05:38:31;100166.13;;;8.93;72.06
75646;BME280;64237;52.438;13.240;2023-04-25T05:40:57;100170.66;;;9.00;72.64
75646;BME280;64237;52.438;13.240;2023-04-25T05:43:22;100171.25;;;9.02;72.41
75646;BME280;64237;52.438;13.240;2023-04-25T05:45:50;100164.16;;;9.06;73.24
75646;BME280;64237;52.438;13.240;2023-04-25T05:48:19;100171.34;;;9.07;74.05
75646;BME280;64237;52.438;13.240;2023-04-25T05:50:50;100181.19;;;9.03;72.86
75646;BME280;64237;52.438;13.240;2023-04-25T05:53:20;100174.84;;;9.02;73.33
75646;BME280;64237;52.438;13.240;2023-04-25T05:55:46;100180.00;;;8.99;72.79
75646;BME280;64237;52.438;13.240;2023-04-25T05:58:11;100183.34;;;9.01;73.75
75646;BME280;64237;52.438;13.240;2023-04-25T06:00:40;100189.06;;;9.11;72.39
75646;BME280;64237;52.438;13.240;2023-04-25T06:03:06;100191.81;;;9.11;72.93
75646;BME280;64237;52.438;13.240;2023-04-25T06:05:34;100195.38;;;9.23;72.95
75646;BME280;64237;52.438;13.240;2023-04-25T06:08:03;100193.78;;;9.27;71.52
75646;BME280;64237;52.438;13.240;2023-04-25T06:10:34;100197.44;;;9.16;72.22
75646;BME280;64237;52.438;13.240;2023-04-25T06:13:04;100189.06;;;9.11;72.40
75646;BME280;64237;52.438;13.240;2023-04-25T06:15:38;100193.41;;;9.07;73.29
75646;BME280;64237;52.438;13.240;2023-04-25T06:18:04;100193.00;;;9.15;72.99
75646;BME280;64237;52.438;13.240;2023-04-25T06:20:32;100201.63;;;9.18;72.45
75646;BME280;64237;52.438;13.240;2023-04-25T06:23:00;100198.81;;;9.30;73.52
75646;BME280;64237;52.438;13.240;2023-04-25T06:25:29;100203.16;;;9.26;72.10
75646;BME280;64237;52.438;13.240;2023-04-25T06:27:57;100207.16;;;9.35;72.24
75646;BME280;64237;52.438;13.240;2023-04-25T06:30:25;100197.28;;;9.22;72.39
75646;BME280;64237;52.438;13.240;2023-04-25T06:32:52;100198.38;;;9.38;72.31
75646;BME280;64237;52.438;13.240;2023-04-25T06:35:18;100198.97;;;9.40;71.85
75646;BME280;64237;52.438;13.240;2023-04-25T06:37:46;100196.56;;;9.27;72.52
75646;BME280;64237;52.438;13.240;2023-04-25T06:40:12;100200.88;;;9.23;72.77
75646;BME280;64237;52.438;13.240;2023-04-25T06:42:37;100204.00;;;9.26;71.72
75646;BME280;64237;52.438;13.240;2023-04-25T06:45:03;100208.81;;;9.19;72.83
75646;BME280;64237;52.438;13.240;2023-04-25T06:47:31;100208.31;;;9.22;72.14
75646;BME280;64237;52.438;13.240;2023-04-25T06:49:59;100213.47;;;9.31;72.16
75646;BME280;64237;52.438;13.240;2023-04-25T06:52:28;100218.53;;;9.22;71.40
75646;BME280;64237;52.438;13.240;2023-04-25T06:54:53;100226.00;;;9.10;72.58
75646;BME280;64237;52.438;13.240;2023-04-25T06:57:18;100214.31;;;9.03;73.49
75646;BME280;64237;52.438;13.240;2023-04-25T06:59:53;100222.81;;;9.01;75.67
75646;BME280;64237;52.438;13.240;2023-04-25T07:02:18;100226.31;;;8.97;75.96
75646;BME280;64237;52.438;13.240;2023-04-25T07:04:46;100222.69;;;8.68;77.66
75646;BME280;64237;52.438;13.240;2023-04-25T07:07:15;100229.63;;;8.70;78.90
75646;BME280;64237;52.438;13.240;2023-04-25T07:09:49;100226.78;;;8.65;79.49
75646;BME280;64237;52.438;13.240;2023-04-25T07:12:24;100229.31;;;8.55;81.15
75646;BME280;64237;52.438;13.240;2023-04-25T07:14:49;100237.13;;;8.35;80.24
75646;BME280;64237;52.438;13.240;2023-04-25T07:17:20;100240.09;;;8.45;81.09
75646;BME280;64237;52.438;13.240;2023-04-25T07:19:46;100240.09;;;8.45;81.28
75646;BME280;64237;52.438;13.240;2023-04-25T07:22:11;100246.34;;;8.52;81.87
75646;BME280;64237;52.438;13.240;2023-04-25T07:24:49;100251.50;;;8.48;78.34
75646;BME280;64237;52.438;13.240;2023-04-25T07:27:16;100254.00;;;8.50;77.01
75646;BME280;64237;52.438;13.240;2023-04-25T07:29:41;100256.28;;;8.65;78.59
75646;BME280;64237;52.438;13.240;2023-04-25T07:32:07;100264.28;;;8.66;76.77
75646;BME280;64237;52.438;13.240;2023-04-25T07:34:39;100256.03;;;8.54;74.75
75646;BME280;64237;52.438;13.240;2023-04-25T07:37:07;100263.84;;;8.57;76.07
75646;BME280;64237;52.438;13.240;2023-04-25T07:39:36;100271.75;;;8.54;74.94
75646;BME280;64237;52.438;13.240;2023-04-25T07:42:04;100263.47;;;8.66;75.99
75646;BME280;64237;52.438;13.240;2023-04-25T07:44:33;100277.81;;;8.68;74.22
75646;BME280;64237;52.438;13.240;2023-04-25T07:47:09;100276.75;;;8.80;77.16
75646;BME280;64237;52.438;13.240;2023-04-25T07:49:36;100272.91;;;8.81;74.43
75646;BME280;64237;52.438;13.240;2023-04-25T07:52:03;100281.84;;;8.88;76.51
75646;BME280;64237;52.438;13.240;2023-04-25T07:54:29;100276.38;;;8.77;73.76
75646;BME280;64237;52.438;13.240;2023-04-25T07:57:00;100281.00;;;9.00;74.25
75646;BME280;64237;52.438;13.240;2023-04-25T07:59:39;100283.16;;;8.98;72.35
75646;BME280;64237;52.438;13.240;2023-04-25T08:02:11;100284.84;;;8.99;73.17
75646;BME280;64237;52.438;13.240;2023-04-25T08:04:36;100292.88;;;9.00;73.11
75646;BME280;64237;52.438;13.240;2023-04-25T08:07:01;100287.00;;;8.97;71.39
75646;BME280;64237;52.438;13.240;2023-04-25T08:09:29;100293.97;;;8.99;71.28
75646;BME280;64237;52.438;13.240;2023-04-25T08:12:03;100293.13;;;8.99;70.04
75646;BME280;64237;52.438;13.240;2023-04-25T08:14:28;100299.16;;;9.24;69.37
75646;BME280;64237;52.438;13.240;2023-04-25T08:17:03;100296.41;;;9.52;67.37
75646;BME280;64237;52.438;13.240;2023-04-25T08:19:29;100297.63;;;9.73;66.24
75646;BME280;64237;52.438;13.240;2023-04-25T08:21:55;100295.69;;;9.74;63.14
75646;BME280;64237;52.438;13.240;2023-04-25T08:24:21;100300.28;;;9.85;60.86
75646;BME280;64237;52.438;13.240;2023-04-25T08:26:52;100308.84;;;10.00;62.81
75646;BME280;64237;52.438;13.240;2023-04-25T08:29:19;100303.25;;;9.95;61.91
75646;BME280;64237;52.438;13.240;2023-04-25T08:31:44;100311.34;;;9.85;61.14
75646;BME280;64237;52.438;13.240;2023-04-25T08:34:12;100315.69;;;9.81;59.31
75646;BME280;64237;52.438;13.240;2023-04-25T08:36:38;100318.22;;;9.99;59.12
75646;BME280;64237;52.438;13.240;2023-04-25T08:39:03;100322.06;;;9.98;57.28
75646;BME280;64237;52.438;13.240;2023-04-25T08:41:29;100319.41;;;10.03;57.25
75646;BME280;64237;52.438;13.240;2023-04-25T08:43:57;100325.41;;;9.83;57.25
75646;BME280;64237;52.438;13.240;2023-04-25T08:46:28;100325.41;;;9.83;58.39
75646;BME280;64237;52.438;13.240;2023-04-25T08:49:01;100333.97;;;9.98;57.37
75646;BME280;64237;52.438;13.240;2023-04-25T08:51:32;100337.66;;;10.04;55.45
75646;BME280;64237;52.438;13.240;2023-04-25T08:54:05;100334.78;;;9.99;55.08
75646;BME280;64237;52.438;13.240;2023-04-25T08:56:38;100331.00;;;10.34;53.30
75646;BME280;64237;52.438;13.240;2023-04-25T08:59:05;100337.66;;;10.71;54.51
75646;BME280;64237;52.438;13.240;2023-04-25T09:01:36;100336.78;;;10.87;52.42
75646;BME280;64237;52.438;13.240;2023-04-25T09:04:01;100331.41;;;10.97;50.33
75646;BME280;64237;52.438;13.240;2023-04-25T09:06:30;100336.94;;;11.41;54.07
75646;BME280;64237;52.438;13.240;2023-04-25T09:09:07;100344.06;;;11.37;48.33
75646;BME280;64237;52.438;13.240;2023-04-25T09:11:35;100335.09;;;11.25;48.74
75646;BME280;64237;52.438;13.240;2023-04-25T09:14:21;100344.66;;;11.39;49.37
75646;BME280;64237;52.438;13.240;2023-04-25T09:19:33;100345.00;;;12.23;49.77
75646;BME280;64237;52.438;13.240;2023-04-25T09:22:02;100360.44;;;12.14;47.22
75646;BME280;64237;52.438;13.240;2023-04-25T09:27:04;100360.88;;;12.01;48.80
75646;BME280;64237;52.438;13.240;2023-04-25T09:29:34;100359.25;;;12.05;49.92
75646;BME280;64237;52.438;13.240;2023-04-25T09:32:22;100379.06;;;11.92;47.49
75646;BME280;64237;52.438;13.240;2023-04-25T09:37:17;100373.94;;;11.13;50.78
75646;BME280;64237;52.438;13.240;2023-04-25T09:39:44;100369.13;;;11.04;51.68
75646;BME280;64237;52.438;13.240;2023-04-25T09:42:11;100363.59;;;11.04;52.64
75646;BME280;64237;52.438;13.240;2023-04-25T09:44:36;100374.66;;;11.04;49.31
75646;BME280;64237;52.438;13.240;2023-04-25T09:47:02;100365.81;;;11.07;49.49
75646;BME280;64237;52.438;13.240;2023-04-25T09:49:28;100365.25;;;11.05;48.38
75646;BME280;64237;52.438;13.240;2023-04-25T09:51:57;100364.81;;;11.13;49.40
75646;BME280;64237;52.438;13.240;2023-04-25T09:54:25;100375.97;;;11.40;50.80
75646;BME280;64237;52.438;13.240;2023-04-25T09:56:53;100374.69;;;11.47;48.69
75646;BME280;64237;52.438;13.240;2023-04-25T09:59:21;100383.03;;;11.52;48.88
75646;BME280;64237;52.438;13.240;2023-04-25T10:01:48;100377.56;;;11.57;47.57
75646;BME280;64237;52.438;13.240;2023-04-25T10:04:19;100377.50;;;11.52;46.54
75646;BME280;64237;52.438;13.240;2023-04-25T10:06:45;100385.19;;;11.45;45.21
75646;BME280;64237;52.438;13.240;2023-04-25T10:09:14;100388.28;;;11.76;49.81
75646;BME280;64237;52.438;13.240;2023-04-25T10:11:40;100386.63;;;11.75;45.06
75646;BME280;64237;52.438;13.240;2023-04-25T10:14:06;100381.75;;;11.82;46.50
75646;BME280;64237;52.438;13.240;2023-04-25T10:16:31;100393.22;;;11.68;46.32
75646;BME280;64237;52.438;13.240;2023-04-25T10:18:57;100392.56;;;11.61;46.00
75646;BME280;64237;52.438;13.240;2023-04-25T10:21:23;100393.84;;;11.76;50.47
75646;BME280;64237;52.438;13.240;2023-04-25T10:23:49;100392.72;;;12.25;46.90
75646;BME280;64237;52.438;13.240;2023-04-25T10:26:15;100383.28;;;12.58;43.95
75646;BME280;64237;52.438;13.240;2023-04-25T10:29:01;100397.84;;;12.39;42.96
75646;BME280;64237;52.438;13.240;2023-04-25T10:31:29;100382.28;;;12.38;41.87
75646;BME280;64237;52.438;13.240;2023-04-25T10:33:56;100394.47;;;12.36;44.09
75646;BME280;64237;52.438;13.240;2023-04-25T10:36:23;100397.94;;;12.49;44.17
75646;BME280;64237;52.438;13.240;2023-04-25T10:38:50;100402.91;;;12.47;45.61
75646;BME280;64237;52.438;13.240;2023-04-25T10:41:18;100406.53;;;12.20;44.72
75646;BME280;64237;52.438;13.240;2023-04-25T10:43:45;100418.53;;;11.99;46.97
75646;BME280;64237;52.438;13.240;2023-04-25T10:46:24;100417.19;;;11.80;45.26
75646;BME280;64237;52.438;13.240;2023-04-25T10:48:53;100420.63;;;11.87;45.24
75646;BME280;64237;52.438;13.240;2023-04-25T10:51:25;100414.84;;;11.72;45.47
75646;BME280;64237;52.438;13.240;2023-04-25T10:56:20;100405.34;;;11.62;44.42
75646;BME280;64237;52.438;13.240;2023-04-25T10:58:49;100409.78;;;11.63;45.19
75646;BME280;64237;52.438;13.240;2023-04-25T11:01:16;100418.19;;;11.74;44.38
75646;BME280;64237;52.438;13.240;2023-04-25T11:03:44;100411.56;;;11.53;47.05
75646;BME280;64237;52.438;13.240;2023-04-25T11:09:13;100431.53;;;11.33;45.96
75646;BME280;64237;52.438;13.240;2023-04-25T11:11:38;100437.53;;;11.25;45.08
75646;BME280;64237;52.438;13.240;2023-04-25T11:14:04;100424.16;;;11.00;46.81
75646;BME280;64237;52.438;13.240;2023-04-25T11:16:29;100451.84;;;10.83;44.96
75646;BME280;64237;52.438;13.240;2023-04-25T11:18:57;100447.66;;;10.97;48.36
75646;BME280;64237;52.438;13.240;2023-04-25T11:21:22;100444.47;;;10.72;45.86
75646;BME280;64237;52.438;13.240;2023-04-25T11:23:48;100459.16;;;10.56;46.92
75646;BME280;64237;52.438;13.240;2023-04-25T11:26:13;100457.53;;;10.43;45.97
75646;BME280;64237;52.438;13.240;2023-04-25T11:28:40;100468.66;;;10.32;44.87
75646;BME280;64237;52.438;13.240;2023-04-25T11:31:05;100460.16;;;10.21;44.42
75646;BME280;64237;52.438;13.240;2023-04-25T11:33:31;100473.28;;;10.14;44.87
75646;BME280;64237;52.438;13.240;2023-04-25T11:35:56;100474.38;;;10.13;43.10
75646;BME280;64237;52.438;13.240;2023-04-25T11:38:22;100476.22;;;10.36;44.81
75646;BME280;64237;52.438;13.240;2023-04-25T11:40:52;100473.97;;;10.50;43.46
75646;BME280;64237;52.438;13.240;2023-04-25T11:43:20;100477.00;;;10.65;41.60
75646;BME280;64237;52.438;13.240;2023-04-25T11:45:48;100485.53;;;10.63;41.53
75646;BME280;64237;52.438;13.240;2023-04-25T11:48:13;100487.91;;;10.72;41.42
75646;BME280;64237;52.438;13.240;2023-04-25T11:50:39;100486.47;;;10.69;42.55
75646;BME280;64237;52.438;13.240;2023-04-25T11:53:05;100484.28;;;10.71;44.33
75646;BME280;64237;52.438;13.240;2023-04-25T11:55:31;100481.03;;;10.74;42.99
75646;BME280;64237;52.438;13.240;2023-04-25T11:57:59;100484.03;;;10.73;43.77
75646;BME280;64237;52.438;13.240;2023-04-25T12:00:25;100474.16;;;10.93;44.07
75646;BME280;64237;52.438;13.240;2023-04-25T12:02:55;100474.66;;;10.90;43.93
75646;BME280;64237;52.438;13.240;2023-04-25T12:05:25;100479.59;;;10.88;44.99
75646;BME280;64237;52.438;13.240;2023-04-25T12:07:51;100481.72;;;10.81;43.27
75646;BME280;64237;52.438;13.240;2023-04-25T12:10:17;100489.72;;;10.83;42.81
75646;BME280;64237;52.438;13.240;2023-04-25T12:12:46;100497.13;;;10.77;42.09
75646;BME280;64237;52.438;13.240;2023-04-25T12:15:17;100484.28;;;11.05;41.91
75646;BME280;64237;52.438;13.240;2023-04-25T12:17:52;100484.53;;;11.20;41.56
75646;BME280;64237;52.438;13.240;2023-04-25T12:20:20;100489.84;;;11.43;40.23
75646;BME280;64237;52.438;13.240;2023-04-25T12:22:49;100490.19;;;11.30;40.13
75646;BME280;64237;52.438;13.240;2023-04-25T12:28:15;100491.78;;;11.81;41.94
75646;BME280;64237;52.438;13.240;2023-04-25T12:33:18;100488.75;;;11.83;39.92
75646;BME280;64237;52.438;13.240;2023-04-25T12:35:44;100489.50;;;12.00;40.82
75646;BME280;64237;52.438;13.240;2023-04-25T12:38:10;100476.63;;;11.50;40.17
75646;BME280;64237;52.438;13.240;2023-04-25T12:40:35;100508.88;;;11.18;42.52
75646;BME280;64237;52.438;13.240;2023-04-25T12:43:01;100505.84;;;10.69;42.66
75646;BME280;64237;52.438;13.240;2023-04-25T12:45:26;100503.66;;;10.71;42.84
75646;BME280;64237;52.438;13.240;2023-04-25T12:47:51;100502.16;;;10.80;43.07
75646;BME280;64237;52.438;13.240;2023-04-25T12:50:17;100511.22;;;10.76;43.23
75646;BME280;64237;52.438;13.240;2023-04-25T12:52:42;100516.59;;;10.82;43.18
75646;BME280;64237;52.438;13.240;2023-04-25T12:55:07;100510.75;;;10.50;42.74
75646;BME280;64237;52.438;13.240;2023-04-25T12:57:33;100522.28;;;10.59;43.81
75646;BME280;64237;52.438;13.240;2023-04-25T12:59:58;100524.94;;;10.54;44.88
75646;BME280;64237;52.438;13.240;2023-04-25T13:02:23;100520.75;;;10.68;44.31
75646;BME280;64237;52.438;13.240;2023-04-25T13:04:49;100514.38;;;10.68;44.96
75646;BME280;64237;52.438;13.240;2023-04-25T13:07:14;100520.75;;;10.68;44.41
75646;BME280;64237;52.438;13.240;2023-04-25T13:09:41;100510.56;;;11.02;47.38
75646;BME280;64237;52.438;13.240;2023-04-25T13:12:06;100516.88;;;11.36;44.22